Time;durP1;ratioP1;P1;durP2;ratioP2;P2;SDS_P1;SDS_P2;PMS_P1;PMS_P2;Temp;Humidity;BMP_temperature;BMP_pressure;BME280_temperature;BME280_humidity;BME280_pressure;Samples;Min_cycle;Max_cycle;Signal;HPM_P1;HPM_P2
2023/10/04 00:05:25;;;;;;;10.13;7.63;;;;;;;27.46;51.45;101936.09;21109344;28;20399;-63
2023/10/04 00:15:29;;;;;;;9.15;7.85;;;;;;;27.45;51.57;101944.84;21134005;28;20047;-63
2023/10/04 00:25:30;;;;;;;9.35;7.88;;;;;;;27.43;51.53;101947.94;21146203;27;20422;-62
2023/10/04 00:35:32;;;;;;;9.38;7.45;;;;;;;27.46;51.45;101964.19;21160869;28;20040;-63
2023/10/04 00:45:34;;;;;;;8.90;7.38;;;;;;;27.47;51.59;101967.84;21159473;28;20051;-62
2023/10/04 00:55:40;;;;;;;10.40;7.93;;;;;;;27.47;51.59;101967.84;21159469;28;20371;-62
2023/10/04 01:05:51;;;;;;;10.75;7.55;;;;;;;27.48;51.44;101972.31;21159911;28;20106;-63
2023/10/04 01:15:57;;;;;;;10.23;7.55;;;;;;;27.49;51.46;101968.38;21162391;28;20055;-64
2023/10/04 01:26:00;;;;;;;9.65;7.80;;;;;;;27.50;51.32;101981.31;21128434;28;20089;-63
2023/10/04 01:36:03;;;;;;;9.75;8.30;;;;;;;27.47;51.38;101982.72;21137990;28;20109;-63
2023/10/04 01:46:04;;;;;;;12.98;9.00;;;;;;;27.49;51.39;101994.53;21154042;28;20444;-62
2023/10/04 01:56:08;;;;;;;12.05;7.88;;;;;;;27.50;51.20;102003.78;21172541;28;20113;-64
2023/10/04 02:06:10;;;;;;;11.02;8.63;;;;;;;27.50;51.05;102010.25;21155721;28;20024;-64
2023/10/04 02:16:19;;;;;;;11.00;9.00;;;;;;;27.38;51.11;102000.56;21140352;28;20046;-63
2023/10/04 02:26:22;;;;;;;14.43;9.32;;;;;;;27.51;51.33;102016.72;21138392;27;20036;-64
2023/10/04 02:36:25;;;;;;;12.95;8.88;;;;;;;27.51;51.32;102016.72;21128732;28;20036;-62
2023/10/04 02:46:28;;;;;;;11.13;9.13;;;;;;;27.50;51.32;102017.84;21139915;28;20048;-64
2023/10/04 02:56:29;;;;;;;11.40;8.65;;;;;;;27.39;51.68;102007.84;21084317;28;20097;-63
2023/10/04 03:06:31;;;;;;;11.48;9.00;;;;;;;27.49;51.32;102025.47;21086997;28;20112;-64
2023/10/04 03:16:34;;;;;;;11.80;8.25;;;;;;;27.45;51.58;102015.94;21154066;28;20036;-63
2023/10/04 03:26:36;;;;;;;10.13;8.70;;;;;;;27.54;51.39;102010.50;21119652;28;20035;-64
2023/10/04 03:36:39;;;;;;;9.68;8.38;;;;;;;27.54;51.47;102021.75;21149874;28;20119;-64
2023/10/04 03:46:41;;;;;;;11.95;8.98;;;;;;;27.54;51.54;102027.38;21123362;28;20047;-62
2023/10/04 03:56:42;;;;;;;12.75;8.25;;;;;;;27.55;51.72;102029.88;21109019;28;20074;-64
2023/10/04 04:06:49;;;;;;;12.35;9.07;;;;;;;27.54;51.99;102011.34;21117771;28;20031;-64
2023/10/04 04:16:51;;;;;;;11.55;8.68;;;;;;;27.54;52.84;102011.34;21131289;28;20587;-63
2023/10/04 04:26:58;;;;;;;11.68;9.13;;;;;;;27.32;53.37;101964.09;21163134;28;20031;-63
2023/10/04 04:36:59;;;;;;;;;;;;;;;27.60;53.46;102009.28;21162679;28;20112;-63
2023/10/04 04:47:00;;;;;;;11.02;8.98;;;;;;;27.62;53.67;101995.75;21161479;28;20647;-65
2023/10/04 04:57:03;;;;;;;11.43;9.20;;;;;;;27.62;53.73;101995.75;21161817;28;20386;-64
2023/10/04 05:07:09;;;;;;;11.05;9.35;;;;;;;27.54;53.82;101976.75;21161764;28;20432;-64
2023/10/04 05:17:11;;;;;;;11.70;9.05;;;;;;;27.60;53.65;101998.03;21160294;28;20044;-63
2023/10/04 05:27:13;;;;;;;10.40;8.48;;;;;;;27.59;53.85;101996.38;21160621;28;20024;-63
2023/10/04 05:37:14;;;;;;;12.35;8.82;;;;;;;27.59;53.74;101993.56;21159712;28;20039;-62
2023/10/04 05:47:17;;;;;;;11.82;8.90;;;;;;;27.57;53.62;101987.38;21159181;28;20100;-63
2023/10/04 05:57:19;;;;;;;10.35;8.30;;;;;;;27.59;53.61;101997.19;21164984;28;20040;-63
2023/10/04 06:07:21;;;;;;;12.15;9.32;;;;;;;27.58;53.53;101986.25;21157015;28;20044;-63
2023/10/04 06:17:22;;;;;;;10.68;8.88;;;;;;;27.47;53.36;101965.03;21168096;28;20043;-63
2023/10/04 06:27:26;;;;;;;10.38;8.85;;;;;;;27.58;53.36;101972.19;21166307;28;20062;-62
2023/10/04 06:37:28;;;;;;;10.38;8.68;;;;;;;27.58;53.55;101966.56;21171030;27;20132;-63
2023/10/04 06:47:29;;;;;;;10.25;8.68;;;;;;;27.59;53.28;101973.88;21170931;28;20049;-64
2023/10/04 06:57:31;;;;;;;12.05;9.13;;;;;;;27.58;53.30;101975.00;21167477;28;20035;-64
2023/10/04 07:07:32;;;;;;;11.80;8.68;;;;;;;27.57;53.37;101967.69;21124872;28;20040;-62
2023/10/04 07:17:34;;;;;;;9.90;8.32;;;;;;;27.56;53.27;101966.88;21160687;28;20040;-63
2023/10/04 07:27:35;;;;;;;12.13;9.20;;;;;;;27.56;53.27;101964.06;21164879;28;20044;-63
2023/10/04 07:37:36;;;;;;;10.05;8.38;;;;;;;27.54;53.11;101959.88;21164365;28;20051;-63
2023/10/04 07:47:42;;;;;;;9.93;7.93;;;;;;;27.55;53.13;101961.56;21143416;28;20044;-63
2023/10/04 07:57:53;;;;;;;12.05;9.38;;;;;;;27.55;53.02;101975.63;21137859;28;20043;-63
2023/10/04 08:07:57;;;;;;;10.50;8.63;;;;;;;27.55;53.03;101984.03;21153978;28;20032;-62
2023/10/04 08:17:59;;;;;;;8.82;7.80;;;;;;;27.52;53.08;101974.22;21147990;28;20454;-63
2023/10/04 08:28:03;;;;;;;10.40;8.82;;;;;;;27.55;52.98;101978.44;21162732;28;20478;-63
2023/10/04 08:38:05;;;;;;;11.45;9.05;;;;;;;27.50;52.98;101976.53;21162691;28;20044;-63
2023/10/04 08:48:07;;;;;;;10.02;8.02;;;;;;;27.48;52.89;101989.19;21161878;28;20039;-63
2023/10/04 08:58:10;;;;;;;9.80;8.40;;;;;;;27.45;52.90;101985.03;21133811;28;20053;-65
2023/10/04 09:08:13;;;;;;;9.77;8.25;;;;;;;27.51;53.01;102011.09;21116496;28;20449;-63
2023/10/04 09:18:25;;;;;;;10.68;8.82;;;;;;;27.48;52.95;102011.69;21090129;28;20047;-63
2023/10/04 09:28:38;;;;;;;9.88;8.32;;;;;;;27.36;53.05;102009.31;21160156;28;20039;-64
2023/10/04 09:38:39;;;;;;;9.52;8.10;;;;;;;27.49;52.78;102027.41;21176499;28;20104;-64
2023/10/04 09:48:43;;;;;;;10.15;8.50;;;;;;;27.35;53.03;102025.34;21175259;28;20127;-63
2023/10/04 09:58:51;;;;;;;11.15;8.90;;;;;;;27.45;52.97;102051.66;21126626;28;20044;-63
2023/10/04 10:09:00;;;;;;;10.75;9.13;;;;;;;27.46;52.95;102064.56;21134357;28;20105;-63
2023/10/04 10:19:06;;;;;;;8.73;7.82;;;;;;;27.40;52.86;102048.88;21131000;28;20055;-63
2023/10/04 10:29:20;;;;;;;9.48;8.27;;;;;;;27.36;52.81;102062.72;21171670;28;20036;-63
2023/10/04 10:39:24;;;;;;;9.85;7.95;;;;;;;27.45;52.83;102074.16;21171227;28;20100;-63
2023/10/04 10:50:00;;;;;;;10.27;8.63;;;;;;;27.39;52.65;102075.31;21169578;28;20320;-63
2023/10/04 11:00:12;;;;;;;10.23;8.13;;;;;;;27.42;52.66;102083.16;21155774;27;20048;-62
2023/10/04 11:10:16;;;;;;;10.82;8.50;;;;;;;27.42;52.59;102102.84;21167724;28;20543;-63
2023/10/04 11:20:17;;;;;;;10.05;8.63;;;;;;;27.40;52.85;102111.59;21166167;28;20096;-63
2023/10/04 11:30:23;;;;;;;11.82;9.05;;;;;;;27.40;52.57;102111.59;21155437;28;20035;-63
2023/10/04 11:40:27;;;;;;;14.52;7.82;;;;;;;27.36;52.82;102111.34;21098546;28;20093;-62
2023/10/04 11:50:45;;;;;;;11.88;8.85;;;;;;;27.38;52.89;102129.88;21164706;28;20081;-62
2023/10/04 12:00:46;;;;;;;;;;;;;;;27.41;52.66;102148.97;21128847;28;20621;-62
2023/10/04 12:10:47;;;;;;;10.38;8.50;;;;;;;27.45;52.63;102166.91;21165085;28;19937;-62
2023/10/04 12:20:52;;;;;;;13.02;8.50;;;;;;;27.32;52.68;102155.22;21139430;28;20390;-63
2023/10/04 12:30:53;;;;;;;10.68;8.35;;;;;;;27.33;52.85;102162.50;21160949;28;20380;-63
2023/10/04 12:40:54;;;;;;;11.32;8.27;;;;;;;27.39;52.80;102187.75;21161261;28;20055;-63
2023/10/04 12:50:58;;;;;;;11.52;8.60;;;;;;;27.39;52.59;102182.13;21161040;28;20039;-63
2023/10/04 13:01:05;;;;;;;13.30;8.77;;;;;;;27.34;52.60;102192.28;21161063;28;20058;-63
2023/10/04 13:11:06;;;;;;;14.98;9.27;;;;;;;27.38;52.69;102202.94;21159403;28;20036;-63
2023/10/04 13:21:11;;;;;;;11.00;8.63;;;;;;;27.38;52.94;102214.19;21159874;28;20479;-64
2023/10/04 13:31:15;;;;;;;13.43;9.45;;;;;;;27.20;52.74;102191.28;21160185;28;20432;-64
2023/10/04 13:41:16;;;;;;;13.05;8.82;;;;;;;27.38;52.79;102225.44;21159383;28;20456;-64
2023/10/04 13:51:23;;;;;;;9.85;7.93;;;;;;;27.40;52.53;102228.78;21158708;28;20375;-63
2023/10/04 14:01:28;;;;;;;;;;;;;;;27.40;52.44;102234.41;21158575;28;20187;-64
2023/10/04 14:11:30;;;;;;;12.35;8.48;;;;;;;27.45;52.32;102221.16;21158017;28;19965;-64
2023/10/04 14:21:34;;;;;;;11.80;9.20;;;;;;;27.40;52.57;102234.41;21168253;28;20047;-64
2023/10/04 14:31:35;;;;;;;11.75;9.23;;;;;;;27.44;52.56;102243.91;21171561;28;20515;-64
2023/10/04 14:41:37;;;;;;;10.15;8.25;;;;;;;27.45;52.28;102249.28;21170382;28;20051;-63
2023/10/04 14:51:41;;;;;;;9.60;8.38;;;;;;;27.34;52.52;102216.75;21170796;28;20080;-63
2023/10/04 15:01:43;;;;;;;10.30;8.07;;;;;;;27.47;52.57;102229.28;21169682;28;20478;-64
2023/10/04 15:11:44;;;;;;;10.60;8.93;;;;;;;27.48;52.57;102214.91;21169182;27;20032;-64
2023/10/04 15:21:47;;;;;;;10.48;8.45;;;;;;;27.50;52.60;102225.91;21168560;28;20536;-64
2023/10/04 15:31:48;;;;;;;12.70;8.85;;;;;;;27.51;52.37;102227.56;21160860;28;20039;-64
2023/10/04 15:41:50;;;;;;;11.18;8.40;;;;;;;27.52;52.54;102220.81;21166643;28;20039;-64
2023/10/04 15:51:52;;;;;;;11.00;8.60;;;;;;;27.54;52.78;102207.31;21165781;28;20047;-64
2023/10/04 16:01:54;;;;;;;10.20;8.10;;;;;;;27.55;52.33;102198.56;21164673;28;20040;-62
2023/10/04 16:11:55;;;;;;;11.20;8.75;;;;;;;27.57;52.62;102187.00;21163381;28;20032;-63
2023/10/04 16:21:56;;;;;;;12.13;8.90;;;;;;;27.59;52.49;102181.94;21163340;28;20100;-63
2023/10/04 16:31:58;;;;;;;10.82;8.80;;;;;;;27.61;52.51;102171.22;21162319;28;20036;-63
2023/10/04 16:41:59;;;;;;;11.15;8.57;;;;;;;27.63;52.48;102160.53;21161891;28;20050;-63
2023/10/04 16:52:00;;;;;;;11.52;8.95;;;;;;;27.65;52.48;102155.44;21161966;28;20023;-63
2023/10/04 17:02:05;;;;;;;9.85;8.60;;;;;;;27.66;52.44;102143.03;21161103;28;20070;-62
2023/10/04 17:12:07;;;;;;;8.70;7.78;;;;;;;27.69;52.24;102130.38;21160615;28;20051;-62
2023/10/04 17:22:08;;;;;;;10.05;8.93;;;;;;;27.71;52.43;102116.84;21159907;28;20043;-64
2023/10/04 17:32:18;;;;;;;12.50;7.85;;;;;;;27.60;52.58;102093.63;21159402;28;20036;-64
2023/10/04 17:42:19;;;;;;;10.32;8.45;;;;;;;27.74;52.27;102097.44;21158702;28;20051;-63
2023/10/04 17:52:24;;;;;;;10.30;8.27;;;;;;;27.76;52.44;102086.69;21162637;28;20104;-63
2023/10/04 18:02:26;;;;;;;10.73;7.78;;;;;;;27.73;52.31;102066.81;21174347;28;20035;-64
2023/10/04 18:12:27;;;;;;;10.15;8.30;;;;;;;27.86;52.27;102071.69;21173442;28;20043;-64
2023/10/04 18:22:28;;;;;;;9.30;7.95;;;;;;;27.97;52.04;102075.19;21173367;28;20039;-64
2023/10/04 18:32:30;;;;;;;9.50;7.60;;;;;;;28.10;51.52;102089.34;21172538;28;20039;-63
2023/10/04 18:42:33;;;;;;;10.77;8.32;;;;;;;28.23;51.09;102070.88;21171397;28;20404;-63
2023/10/04 18:52:35;;;;;;;8.98;7.65;;;;;;;28.38;50.90;102069.00;21171337;28;20031;-63
2023/10/04 19:02:37;;;;;;;9.32;7.68;;;;;;;28.52;50.43;102070.75;21168618;28;20067;-63
2023/10/04 19:12:38;;;;;;;8.65;7.00;;;;;;;28.66;50.12;102067.16;21169552;28;20032;-63
2023/10/04 19:22:40;;;;;;;8.90;7.40;;;;;;;28.72;50.02;102058.28;21168642;28;20036;-63
2023/10/04 19:32:44;;;;;;;8.57;7.57;;;;;;;28.73;49.98;102060.00;21167800;28;20024;-63
2023/10/04 19:42:46;;;;;;;8.52;7.35;;;;;;;28.71;49.93;102051.00;21166404;28;20043;-64
2023/10/04 19:52:50;;;;;;;8.38;7.07;;;;;;;28.55;50.20;102018.63;21166595;28;20048;-63
2023/10/04 20:02:53;;;;;;;7.50;6.22;;;;;;;28.61;50.30;102039.91;21164979;28;20066;-63
2023/10/04 20:12:57;;;;;;;8.23;7.25;;;;;;;28.51;50.61;102028.81;21160526;28;20479;-62
2023/10/04 20:23:00;;;;;;;8.00;6.75;;;;;;;28.36;50.51;102001.72;21118366;28;20069;-62
2023/10/04 20:33:07;;;;;;;9.88;7.05;;;;;;;28.40;50.66;102016.03;21118950;28;20508;-62
2023/10/04 20:43:09;;;;;;;8.23;7.32;;;;;;;28.28;50.83;102008.88;21148509;28;20047;-62
2023/10/04 20:53:12;;;;;;;9.45;7.55;;;;;;;28.33;50.78;102022.88;21132262;28;20077;-62
2023/10/04 21:03:16;;;;;;;7.72;6.93;;;;;;;28.31;50.75;102016.69;21149906;28;20047;-62
2023/10/04 21:13:18;;;;;;;8.02;7.07;;;;;;;28.30;50.66;102023.47;21096704;28;20040;-62
2023/10/04 21:23:29;;;;;;;7.65;6.85;;;;;;;28.29;50.65;102021.81;21115187;28;20039;-62
2023/10/04 21:33:30;;;;;;;8.32;7.38;;;;;;;28.28;50.54;102013.69;21163942;28;20039;-62
2023/10/04 21:43:34;;;;;;;8.32;6.95;;;;;;;28.25;50.52;102017.94;21154344;28;20104;-62
2023/10/04 21:53:36;;;;;;;9.98;6.50;;;;;;;28.25;50.65;102025.53;21153987;28;20035;-62
2023/10/04 22:03:39;;;;;;;10.30;7.32;;;;;;;28.22;50.72;102021.34;21164614;28;20048;-61
2023/10/04 22:13:40;;;;;;;8.57;7.35;;;;;;;28.22;50.71;102021.34;21132137;28;20410;-61
2023/10/04 22:23:43;;;;;;;8.98;7.75;;;;;;;28.20;50.80;102032.09;21104258;28;20051;-62
2023/10/04 22:33:48;;;;;;;8.02;7.18;;;;;;;28.18;50.94;102042.81;21132875;28;20051;-63
2023/10/04 22:43:52;;;;;;;9.55;8.40;;;;;;;28.17;50.99;102032.69;21162478;28;20048;-62
2023/10/04 22:53:57;;;;;;;9.63;8.63;;;;;;;28.17;51.21;102034.66;21160979;27;20493;-63
2023/10/04 23:03:58;;;;;;;10.07;8.38;;;;;;;28.14;51.22;102041.75;21167916;28;20043;-63
2023/10/04 23:14:00;;;;;;;10.15;8.88;;;;;;;28.13;51.30;102040.06;21126668;28;20040;-63
2023/10/04 23:24:14;;;;;;;11.00;9.02;;;;;;;28.07;51.45;102030.03;21139021;27;20109;-62
2023/10/04 23:34:16;;;;;;;10.02;8.52;;;;;;;28.13;51.55;102059.75;21195395;27;20382;-64
2023/10/04 23:44:22;;;;;;;11.32;8.55;;;;;;;28.12;51.62;102084.25;21139493;27;20048;-63
2023/10/04 23:54:34;;;;;;;12.55;9.55;;;;;;;28.13;51.64;102096.34;21153063;27;20042;-63
